sensor_id;sensor_type;location;lat;lon;timestamp;P1;durP1;ratioP1;P2;durP2;ratioP2
13879;SDS011;7010;48.200;16.332;2023-03-14T00:01:09;2.95;;;2.67;;
13879;SDS011;7010;48.200;16.332;2023-03-14T00:03:39;2.60;;;2.40;;
13879;SDS011;7010;48.200;16.332;2023-03-14T00:06:09;3.22;;;2.92;;
13879;SDS011;7010;48.200;16.332;2023-03-14T00:08:38;2.65;;;2.45;;
13879;SDS011;7010;48.200;16.332;2023-03-14T00:11:09;3.15;;;2.85;;
13879;SDS011;7010;48.200;16.332;2023-03-14T00:13:39;3.47;;;2.72;;
13879;SDS011;7010;48.200;16.332;2023-03-14T00:16:08;4.07;;;2.95;;
13879;SDS011;7010;48.200;16.332;2023-03-14T00:18:37;2.13;;;2.00;;
13879;SDS011;7010;48.200;16.332;2023-03-14T00:21:07;3.85;;;2.97;;
13879;SDS011;7010;48.200;16.332;2023-03-14T00:23:39;3.05;;;2.83;;
13879;SDS011;7010;48.200;16.332;2023-03-14T00:26:09;28.52;;;3.05;;
13879;SDS011;7010;48.200;16.332;2023-03-14T00:28:38;3.85;;;2.78;;
13879;SDS011;7010;48.200;16.332;2023-03-14T00:31:07;2.80;;;2.60;;
13879;SDS011;7010;48.200;16.332;2023-03-14T00:33:37;17.10;;;2.90;;
13879;SDS011;7010;48.200;16.332;2023-03-14T00:36:06;5.05;;;2.67;;
13879;SDS011;7010;48.200;16.332;2023-03-14T00:38:39;2.83;;;2.63;;
13879;SDS011;7010;48.200;16.332;2023-03-14T00:41:09;2.85;;;2.30;;
13879;SDS011;7010;48.200;16.332;2023-03-14T00:43:39;3.58;;;2.53;;
13879;SDS011;7010;48.200;16.332;2023-03-14T00:46:07;9.63;;;2.78;;
13879;SDS011;7010;48.200;16.332;2023-03-14T00:48:36;2.38;;;2.17;;
13879;SDS011;7010;48.200;16.332;2023-03-14T00:51:06;3.75;;;2.83;;
13879;SDS011;7010;48.200;16.332;2023-03-14T00:53:37;3.38;;;3.08;;
13879;SDS011;7010;48.200;16.332;2023-03-14T00:56:07;3.20;;;2.67;;
13879;SDS011;7010;48.200;16.332;2023-03-14T00:58:37;9.95;;;3.38;;
13879;SDS011;7010;48.200;16.332;2023-03-14T01:01:07;2.63;;;2.42;;
13879;SDS011;7010;48.200;16.332;2023-03-14T01:03:36;4.68;;;3.38;;
13879;SDS011;7010;48.200;16.332;2023-03-14T01:06:09;3.92;;;2.88;;
13879;SDS011;7010;48.200;16.332;2023-03-14T01:08:40;3.28;;;2.97;;
13879;SDS011;7010;48.200;16.332;2023-03-14T01:11:09;3.85;;;2.85;;
13879;SDS011;7010;48.200;16.332;2023-03-14T01:13:43;5.15;;;3.00;;
13879;SDS011;7010;48.200;16.332;2023-03-14T01:16:12;2.83;;;2.53;;
13879;SDS011;7010;48.200;16.332;2023-03-14T01:18:41;2.47;;;2.28;;
13879;SDS011;7010;48.200;16.332;2023-03-14T01:21:11;4.82;;;2.65;;
13879;SDS011;7010;48.200;16.332;2023-03-14T01:23:43;2.80;;;2.47;;
13879;SDS011;7010;48.200;16.332;2023-03-14T01:26:14;2.30;;;2.10;;
13879;SDS011;7010;48.200;16.332;2023-03-14T01:28:45;5.35;;;2.83;;
13879;SDS011;7010;48.200;16.332;2023-03-14T01:31:15;3.72;;;3.03;;
13879;SDS011;7010;48.200;16.332;2023-03-14T01:33:43;3.20;;;2.60;;
13879;SDS011;7010;48.200;16.332;2023-03-14T01:36:12;4.63;;;2.53;;
13879;SDS011;7010;48.200;16.332;2023-03-14T01:38:43;2.72;;;2.28;;
13879;SDS011;7010;48.200;16.332;2023-03-14T01:41:13;2.42;;;2.22;;
13879;SDS011;7010;48.200;16.332;2023-03-14T01:43:43;3.83;;;3.03;;
13879;SDS011;7010;48.200;16.332;2023-03-14T01:46:22;3.15;;;2.63;;
13879;SDS011;7010;48.200;16.332;2023-03-14T01:48:54;3.20;;;2.90;;
13879;SDS011;7010;48.200;16.332;2023-03-14T01:51:27;4.05;;;2.47;;
13879;SDS011;7010;48.200;16.332;2023-03-14T01:54:01;6.45;;;3.65;;
13879;SDS011;7010;48.200;16.332;2023-03-14T01:56:35;3.72;;;3.38;;
13879;SDS011;7010;48.200;16.332;2023-03-14T01:59:04;9.00;;;3.47;;
13879;SDS011;7010;48.200;16.332;2023-03-14T02:01:35;3.72;;;3.20;;
13879;SDS011;7010;48.200;16.332;2023-03-14T02:04:04;2.80;;;2.30;;
13879;SDS011;7010;48.200;16.332;2023-03-14T02:06:37;8.98;;;3.15;;
13879;SDS011;7010;48.200;16.332;2023-03-14T02:09:14;3.63;;;2.67;;
13879;SDS011;7010;48.200;16.332;2023-03-14T02:11:43;5.57;;;2.55;;
13879;SDS011;7010;48.200;16.332;2023-03-14T02:14:14;7.15;;;3.28;;
13879;SDS011;7010;48.200;16.332;2023-03-14T02:16:52;4.47;;;3.55;;
13879;SDS011;7010;48.200;16.332;2023-03-14T02:19:23;3.47;;;3.17;;
13879;SDS011;7010;48.200;16.332;2023-03-14T02:22:05;3.33;;;3.05;;
13879;SDS011;7010;48.200;16.332;2023-03-14T02:24:40;4.63;;;3.22;;
13879;SDS011;7010;48.200;16.332;2023-03-14T02:27:16;3.10;;;2.53;;
13879;SDS011;7010;48.200;16.332;2023-03-14T02:29:47;4.40;;;3.53;;
13879;SDS011;7010;48.200;16.332;2023-03-14T02:32:19;3.13;;;2.83;;
13879;SDS011;7010;48.200;16.332;2023-03-14T02:34:49;3.88;;;3.38;;
13879;SDS011;7010;48.200;16.332;2023-03-14T02:37:20;2.85;;;2.65;;
13879;SDS011;7010;48.200;16.332;2023-03-14T02:39:53;3.38;;;3.08;;
13879;SDS011;7010;48.200;16.332;2023-03-14T02:42:23;2.55;;;2.35;;
13879;SDS011;7010;48.200;16.332;2023-03-14T02:44:52;3.92;;;2.85;;
13879;SDS011;7010;48.200;16.332;2023-03-14T02:47:23;3.75;;;3.20;;
13879;SDS011;7010;48.200;16.332;2023-03-14T02:49:57;3.20;;;2.80;;
13879;SDS011;7010;48.200;16.332;2023-03-14T02:52:28;4.85;;;2.60;;
13879;SDS011;7010;48.200;16.332;2023-03-14T02:54:56;2.97;;;2.67;;
13879;SDS011;7010;48.200;16.332;2023-03-14T02:57:26;2.53;;;2.33;;
13879;SDS011;7010;48.200;16.332;2023-03-14T02:59:57;2.38;;;2.15;;
13879;SDS011;7010;48.200;16.332;2023-03-14T03:02:26;3.13;;;2.42;;
13879;SDS011;7010;48.200;16.332;2023-03-14T03:04:54;3.08;;;2.33;;
13879;SDS011;7010;48.200;16.332;2023-03-14T03:07:23;5.55;;;2.90;;
13879;SDS011;7010;48.200;16.332;2023-03-14T03:09:51;4.72;;;2.83;;
13879;SDS011;7010;48.200;16.332;2023-03-14T03:12:20;3.85;;;2.72;;
13879;SDS011;7010;48.200;16.332;2023-03-14T03:14:49;3.20;;;2.55;;
13879;SDS011;7010;48.200;16.332;2023-03-14T03:17:18;3.50;;;2.85;;
13879;SDS011;7010;48.200;16.332;2023-03-14T03:19:46;2.83;;;2.30;;
13879;SDS011;7010;48.200;16.332;2023-03-14T03:22:15;3.28;;;2.80;;
13879;SDS011;7010;48.200;16.332;2023-03-14T03:24:43;2.55;;;2.45;;
13879;SDS011;7010;48.200;16.332;2023-03-14T03:27:11;2.25;;;2.13;;
13879;SDS011;7010;48.200;16.332;2023-03-14T03:29:40;2.65;;;2.45;;
13879;SDS011;7010;48.200;16.332;2023-03-14T03:32:10;2.47;;;2.28;;
13879;SDS011;7010;48.200;16.332;2023-03-14T03:34:38;4.68;;;2.83;;
13879;SDS011;7010;48.200;16.332;2023-03-14T03:37:06;8.07;;;3.30;;
13879;SDS011;7010;48.200;16.332;2023-03-14T03:39:35;3.50;;;3.05;;
13879;SDS011;7010;48.200;16.332;2023-03-14T03:42:03;2.40;;;2.28;;
13879;SDS011;7010;48.200;16.332;2023-03-14T03:44:31;4.30;;;2.78;;
13879;SDS011;7010;48.200;16.332;2023-03-14T03:46:59;8.13;;;3.30;;
13879;SDS011;7010;48.200;16.332;2023-03-14T03:49:30;2.40;;;2.30;;
13879;SDS011;7010;48.200;16.332;2023-03-14T03:51:59;6.10;;;3.25;;
13879;SDS011;7010;48.200;16.332;2023-03-14T03:54:27;3.40;;;3.10;;
13879;SDS011;7010;48.200;16.332;2023-03-14T03:56:56;3.03;;;2.80;;
13879;SDS011;7010;48.200;16.332;2023-03-14T03:59:24;5.72;;;3.22;;
13879;SDS011;7010;48.200;16.332;2023-03-14T04:01:53;3.75;;;3.25;;
13879;SDS011;7010;48.200;16.332;2023-03-14T04:04:22;3.55;;;3.20;;
13879;SDS011;7010;48.200;16.332;2023-03-14T04:06:52;3.72;;;3.33;;
13879;SDS011;7010;48.200;16.332;2023-03-14T04:09:20;5.78;;;4.00;;
13879;SDS011;7010;48.200;16.332;2023-03-14T04:11:48;3.20;;;2.97;;
13879;SDS011;7010;48.200;16.332;2023-03-14T04:14:16;3.67;;;3.33;;
13879;SDS011;7010;48.200;16.332;2023-03-14T04:16:45;4.43;;;3.88;;
13879;SDS011;7010;48.200;16.332;2023-03-14T04:19:13;3.53;;;3.08;;
13879;SDS011;7010;48.200;16.332;2023-03-14T04:21:41;4.50;;;3.53;;
13879;SDS011;7010;48.200;16.332;2023-03-14T04:24:14;3.90;;;3.08;;
13879;SDS011;7010;48.200;16.332;2023-03-14T04:26:43;3.67;;;3.28;;
13879;SDS011;7010;48.200;16.332;2023-03-14T04:29:11;11.85;;;4.18;;
13879;SDS011;7010;48.200;16.332;2023-03-14T04:31:40;2.90;;;2.70;;
13879;SDS011;7010;48.200;16.332;2023-03-14T04:34:08;4.97;;;3.65;;
13879;SDS011;7010;48.200;16.332;2023-03-14T04:36:37;3.08;;;2.72;;
13879;SDS011;7010;48.200;16.332;2023-03-14T04:39:05;3.15;;;2.85;;
13879;SDS011;7010;48.200;16.332;2023-03-14T04:41:35;5.28;;;2.72;;
13879;SDS011;7010;48.200;16.332;2023-03-14T04:44:04;3.15;;;2.83;;
13879;SDS011;7010;48.200;16.332;2023-03-14T04:46:32;2.80;;;2.60;;
13879;SDS011;7010;48.200;16.332;2023-03-14T04:49:00;2.95;;;2.75;;
13879;SDS011;7010;48.200;16.332;2023-03-14T04:51:29;4.13;;;2.92;;
13879;SDS011;7010;48.200;16.332;2023-03-14T04:53:57;6.00;;;2.95;;
13879;SDS011;7010;48.200;16.332;2023-03-14T04:56:25;3.33;;;2.58;;
13879;SDS011;7010;48.200;16.332;2023-03-14T04:58:58;2.55;;;2.35;;
13879;SDS011;7010;48.200;16.332;2023-03-14T05:01:26;2.38;;;2.22;;
13879;SDS011;7010;48.200;16.332;2023-03-14T05:03:54;3.78;;;2.90;;
13879;SDS011;7010;48.200;16.332;2023-03-14T05:06:23;3.70;;;2.38;;
13879;SDS011;7010;48.200;16.332;2023-03-14T05:08:51;11.98;;;2.65;;
13879;SDS011;7010;48.200;16.332;2023-03-14T05:11:19;3.05;;;2.75;;
13879;SDS011;7010;48.200;16.332;2023-03-14T05:13:48;2.53;;;2.30;;
13879;SDS011;7010;48.200;16.332;2023-03-14T05:16:18;3.40;;;3.08;;
13879;SDS011;7010;48.200;16.332;2023-03-14T05:18:46;3.67;;;3.38;;
13879;SDS011;7010;48.200;16.332;2023-03-14T05:21:14;3.97;;;3.15;;
13879;SDS011;7010;48.200;16.332;2023-03-14T05:23:43;3.80;;;2.58;;
13879;SDS011;7010;48.200;16.332;2023-03-14T05:26:11;3.33;;;3.03;;
13879;SDS011;7010;48.200;16.332;2023-03-14T05:28:39;2.95;;;2.67;;
13879;SDS011;7010;48.200;16.332;2023-03-14T05:31:08;2.78;;;2.58;;
13879;SDS011;7010;48.200;16.332;2023-03-14T05:33:38;4.20;;;3.17;;
13879;SDS011;7010;48.200;16.332;2023-03-14T05:36:07;5.32;;;2.65;;
13879;SDS011;7010;48.200;16.332;2023-03-14T05:38:36;2.92;;;2.63;;
13879;SDS011;7010;48.200;16.332;2023-03-14T05:41:04;2.63;;;2.42;;
13879;SDS011;7010;48.200;16.332;2023-03-14T05:43:33;3.58;;;3.05;;
13879;SDS011;7010;48.200;16.332;2023-03-14T05:46:01;6.20;;;3.92;;
13879;SDS011;7010;48.200;16.332;2023-03-14T05:48:29;3.45;;;3.08;;
13879;SDS011;7010;48.200;16.332;2023-03-14T05:50:59;3.22;;;2.92;;
13879;SDS011;7010;48.200;16.332;2023-03-14T05:53:28;3.80;;;3.20;;
13879;SDS011;7010;48.200;16.332;2023-03-14T05:55:56;4.57;;;3.40;;
13879;SDS011;7010;48.200;16.332;2023-03-14T05:58:25;3.83;;;3.53;;
13879;SDS011;7010;48.200;16.332;2023-03-14T06:00:53;3.33;;;3.03;;
13879;SDS011;7010;48.200;16.332;2023-03-14T06:03:22;3.03;;;2.70;;
13879;SDS011;7010;48.200;16.332;2023-03-14T06:05:50;6.70;;;2.78;;
13879;SDS011;7010;48.200;16.332;2023-03-14T06:08:20;4.60;;;3.17;;
13879;SDS011;7010;48.200;16.332;2023-03-14T06:10:48;3.33;;;2.92;;
13879;SDS011;7010;48.200;16.332;2023-03-14T06:13:17;2.75;;;2.55;;
13879;SDS011;7010;48.200;16.332;2023-03-14T06:15:45;3.53;;;2.88;;
13879;SDS011;7010;48.200;16.332;2023-03-14T06:18:16;4.15;;;2.80;;
13879;SDS011;7010;48.200;16.332;2023-03-14T06:20:45;2.80;;;2.60;;
13879;SDS011;7010;48.200;16.332;2023-03-14T06:23:13;3.75;;;2.70;;
13879;SDS011;7010;48.200;16.332;2023-03-14T06:25:44;3.17;;;2.60;;
13879;SDS011;7010;48.200;16.332;2023-03-14T06:28:12;6.28;;;2.95;;
13879;SDS011;7010;48.200;16.332;2023-03-14T06:30:41;3.55;;;3.25;;
13879;SDS011;7010;48.200;16.332;2023-03-14T06:33:09;4.35;;;3.08;;
13879;SDS011;7010;48.200;16.332;2023-03-14T06:35:38;4.45;;;3.33;;
13879;SDS011;7010;48.200;16.332;2023-03-14T06:38:06;3.13;;;2.83;;
13879;SDS011;7010;48.200;16.332;2023-03-14T06:40:34;3.55;;;3.15;;
13879;SDS011;7010;48.200;16.332;2023-03-14T06:43:04;4.80;;;3.60;;
13879;SDS011;7010;48.200;16.332;2023-03-14T06:45:33;4.75;;;3.97;;
13879;SDS011;7010;48.200;16.332;2023-03-14T06:48:01;5.15;;;3.65;;
13879;SDS011;7010;48.200;16.332;2023-03-14T06:50:30;3.17;;;2.85;;
13879;SDS011;7010;48.200;16.332;2023-03-14T06:52:58;3.90;;;3.20;;
13879;SDS011;7010;48.200;16.332;2023-03-14T06:55:27;4.55;;;3.72;;
13879;SDS011;7010;48.200;16.332;2023-03-14T06:57:55;4.40;;;4.00;;
13879;SDS011;7010;48.200;16.332;2023-03-14T07:00:25;9.40;;;4.35;;
13879;SDS011;7010;48.200;16.332;2023-03-14T07:02:53;8.50;;;4.28;;
13879;SDS011;7010;48.200;16.332;2023-03-14T07:05:24;5.22;;;3.45;;
13879;SDS011;7010;48.200;16.332;2023-03-14T07:07:53;4.07;;;3.42;;
13879;SDS011;7010;48.200;16.332;2023-03-14T07:10:21;3.90;;;3.50;;
13879;SDS011;7010;48.200;16.332;2023-03-14T07:12:52;4.03;;;3.30;;
13879;SDS011;7010;48.200;16.332;2023-03-14T07:15:21;7.70;;;3.72;;
13879;SDS011;7010;48.200;16.332;2023-03-14T07:17:50;4.45;;;3.95;;
13879;SDS011;7010;48.200;16.332;2023-03-14T07:20:19;4.97;;;4.00;;
13879;SDS011;7010;48.200;16.332;2023-03-14T07:22:47;9.50;;;4.97;;
13879;SDS011;7010;48.200;16.332;2023-03-14T07:25:16;9.65;;;4.50;;
13879;SDS011;7010;48.200;16.332;2023-03-14T07:27:47;8.18;;;4.78;;
13879;SDS011;7010;48.200;16.332;2023-03-14T07:30:16;6.78;;;4.15;;
13879;SDS011;7010;48.200;16.332;2023-03-14T07:32:47;5.63;;;3.97;;
13879;SDS011;7010;48.200;16.332;2023-03-14T07:35:18;6.80;;;4.15;;
13879;SDS011;7010;48.200;16.332;2023-03-14T07:37:47;5.10;;;4.22;;
13879;SDS011;7010;48.200;16.332;2023-03-14T07:40:15;4.95;;;3.97;;
13879;SDS011;7010;48.200;16.332;2023-03-14T07:42:44;4.43;;;3.80;;
13879;SDS011;7010;48.200;16.332;2023-03-14T07:45:12;4.50;;;3.78;;
13879;SDS011;7010;48.200;16.332;2023-03-14T07:47:41;5.78;;;3.85;;
13879;SDS011;7010;48.200;16.332;2023-03-14T07:50:10;2.08;;;1.80;;
13879;SDS011;7010;48.200;16.332;2023-03-14T07:52:40;1.75;;;1.65;;
13879;SDS011;7010;48.200;16.332;2023-03-14T07:55:08;1.75;;;1.65;;
13879;SDS011;7010;48.200;16.332;2023-03-14T07:57:40;1.60;;;1.42;;
13879;SDS011;7010;48.200;16.332;2023-03-14T08:00:08;1.63;;;1.52;;
13879;SDS011;7010;48.200;16.332;2023-03-14T08:02:41;2.50;;;1.05;;
13879;SDS011;7010;48.200;16.332;2023-03-14T08:05:10;1.52;;;1.40;;
13879;SDS011;7010;48.200;16.332;2023-03-14T08:07:40;1.55;;;1.45;;
13879;SDS011;7010;48.200;16.332;2023-03-14T08:10:08;1.20;;;1.15;;
13879;SDS011;7010;48.200;16.332;2023-03-14T08:12:40;3.00;;;1.80;;
13879;SDS011;7010;48.200;16.332;2023-03-14T08:15:09;4.88;;;1.42;;
13879;SDS011;7010;48.200;16.332;2023-03-14T08:17:38;2.13;;;1.70;;
13879;SDS011;7010;48.200;16.332;2023-03-14T08:20:07;1.05;;;1.02;;
13879;SDS011;7010;48.200;16.332;2023-03-14T08:22:37;1.25;;;1.15;;
13879;SDS011;7010;48.200;16.332;2023-03-14T08:25:08;0.55;;;0.55;;
13879;SDS011;7010;48.200;16.332;2023-03-14T08:27:37;0.73;;;0.73;;
13879;SDS011;7010;48.200;16.332;2023-03-14T08:30:06;1.10;;;1.10;;
13879;SDS011;7010;48.200;16.332;2023-03-14T08:32:37;0.70;;;0.70;;
13879;SDS011;7010;48.200;16.332;2023-03-14T08:35:06;0.60;;;0.60;;
13879;SDS011;7010;48.200;16.332;2023-03-14T08:37:36;0.60;;;0.60;;
13879;SDS011;7010;48.200;16.332;2023-03-14T08:40:07;0.60;;;0.60;;
13879;SDS011;7010;48.200;16.332;2023-03-14T08:42:36;0.90;;;0.70;;
13879;SDS011;7010;48.200;16.332;2023-03-14T08:45:06;0.80;;;0.80;;
13879;SDS011;7010;48.200;16.332;2023-03-14T08:47:35;0.88;;;0.88;;
13879;SDS011;7010;48.200;16.332;2023-03-14T08:50:05;1.10;;;1.10;;
13879;SDS011;7010;48.200;16.332;2023-03-14T08:52:40;1.92;;;1.30;;
13879;SDS011;7010;48.200;16.332;2023-03-14T08:55:11;1.35;;;1.15;;
13879;SDS011;7010;48.200;16.332;2023-03-14T08:57:40;0.90;;;0.90;;
13879;SDS011;7010;48.200;16.332;2023-03-14T09:00:09;1.98;;;1.02;;
13879;SDS011;7010;48.200;16.332;2023-03-14T09:02:40;0.77;;;0.77;;
13879;SDS011;7010;48.200;16.332;2023-03-14T09:05:09;2.25;;;1.00;;
13879;SDS011;7010;48.200;16.332;2023-03-14T09:07:38;1.67;;;0.70;;
13879;SDS011;7010;48.200;16.332;2023-03-14T09:10:08;0.88;;;0.88;;
13879;SDS011;7010;48.200;16.332;2023-03-14T09:12:39;0.90;;;0.90;;
13879;SDS011;7010;48.200;16.332;2023-03-14T09:15:08;2.30;;;1.33;;
13879;SDS011;7010;48.200;16.332;2023-03-14T09:17:37;1.20;;;1.20;;
13879;SDS011;7010;48.200;16.332;2023-03-14T09:20:09;1.77;;;1.67;;
13879;SDS011;7010;48.200;16.332;2023-03-14T09:22:38;1.40;;;1.30;;
13879;SDS011;7010;48.200;16.332;2023-03-14T09:25:06;1.27;;;1.17;;
13879;SDS011;7010;48.200;16.332;2023-03-14T09:27:37;1.55;;;1.35;;
13879;SDS011;7010;48.200;16.332;2023-03-14T09:30:06;31.42;;;1.70;;
13879;SDS011;7010;48.200;16.332;2023-03-14T09:32:37;1.85;;;1.75;;
13879;SDS011;7010;48.200;16.332;2023-03-14T09:35:06;2.50;;;2.30;;
13879;SDS011;7010;48.200;16.332;2023-03-14T09:37:36;3.67;;;3.17;;
13879;SDS011;7010;48.200;16.332;2023-03-14T09:40:05;1.00;;;0.95;;
13879;SDS011;7010;48.200;16.332;2023-03-14T09:42:38;0.95;;;0.95;;
13879;SDS011;7010;48.200;16.332;2023-03-14T09:45:11;3.25;;;1.70;;
13879;SDS011;7010;48.200;16.332;2023-03-14T09:47:44;2.08;;;1.98;;
13879;SDS011;7010;48.200;16.332;2023-03-14T09:50:25;3.33;;;2.50;;
13879;SDS011;7010;48.200;16.332;2023-03-14T09:52:59;2.38;;;2.17;;
13879;SDS011;7010;48.200;16.332;2023-03-14T09:55:31;2.60;;;2.40;;
13879;SDS011;7010;48.200;16.332;2023-03-14T09:58:04;4.10;;;2.20;;
13879;SDS011;7010;48.200;16.332;2023-03-14T10:00:39;4.65;;;2.58;;
13879;SDS011;7010;48.200;16.332;2023-03-14T10:03:21;2.35;;;2.22;;
13879;SDS011;7010;48.200;16.332;2023-03-14T10:05:52;2.72;;;2.53;;
13879;SDS011;7010;48.200;16.332;2023-03-14T10:08:22;1.67;;;1.58;;
13879;SDS011;7010;48.200;16.332;2023-03-14T10:10:51;2.20;;;2.03;;
13879;SDS011;7010;48.200;16.332;2023-03-14T10:13:22;2.13;;;1.95;;
13879;SDS011;7010;48.200;16.332;2023-03-14T10:15:54;1.10;;;1.10;;
13879;SDS011;7010;48.200;16.332;2023-03-14T10:18:27;1.75;;;1.65;;
13879;SDS011;7010;48.200;16.332;2023-03-14T10:21:04;1.25;;;1.10;;
13879;SDS011;7010;48.200;16.332;2023-03-14T10:23:44;1.45;;;1.35;;
13879;SDS011;7010;48.200;16.332;2023-03-14T10:26:15;1.00;;;1.00;;
13879;SDS011;7010;48.200;16.332;2023-03-14T10:28:47;0.82;;;0.82;;
13879;SDS011;7010;48.200;16.332;2023-03-14T10:31:18;2.03;;;1.83;;
13879;SDS011;7010;48.200;16.332;2023-03-14T10:33:59;2.78;;;2.00;;
13879;SDS011;7010;48.200;16.332;2023-03-14T10:36:29;1.58;;;1.48;;
13879;SDS011;7010;48.200;16.332;2023-03-14T10:39:15;0.80;;;0.80;;
13879;SDS011;7010;48.200;16.332;2023-03-14T10:41:52;1.25;;;1.08;;
13879;SDS011;7010;48.200;16.332;2023-03-14T10:44:24;1.17;;;1.13;;
13879;SDS011;7010;48.200;16.332;2023-03-14T10:46:56;1.10;;;1.00;;
13879;SDS011;7010;48.200;16.332;2023-03-14T10:49:28;0.63;;;0.63;;
13879;SDS011;7010;48.200;16.332;2023-03-14T10:52:00;1.85;;;0.75;;
13879;SDS011;7010;48.200;16.332;2023-03-14T10:54:39;1.38;;;0.88;;
13879;SDS011;7010;48.200;16.332;2023-03-14T10:57:11;0.77;;;0.77;;
13879;SDS011;7010;48.200;16.332;2023-03-14T10:59:41;0.88;;;0.60;;
13879;SDS011;7010;48.200;16.332;2023-03-14T11:02:15;0.65;;;0.65;;
13879;SDS011;7010;48.200;16.332;2023-03-14T11:05:11;0.60;;;0.60;;
13879;SDS011;7010;48.200;16.332;2023-03-14T11:07:53;0.70;;;0.70;;
13879;SDS011;7010;48.200;16.332;2023-03-14T11:10:30;2.15;;;0.57;;
13879;SDS011;7010;48.200;16.332;2023-03-14T11:13:07;0.75;;;0.75;;
13879;SDS011;7010;48.200;16.332;2023-03-14T11:15:48;0.50;;;0.50;;
13879;SDS011;7010;48.200;16.332;2023-03-14T11:18:30;0.47;;;0.47;;
13879;SDS011;7010;48.200;16.332;2023-03-14T11:21:13;0.40;;;0.40;;
13879;SDS011;7010;48.200;16.332;2023-03-14T11:23:47;0.75;;;0.75;;
13879;SDS011;7010;48.200;16.332;2023-03-14T11:26:26;0.40;;;0.40;;
13879;SDS011;7010;48.200;16.332;2023-03-14T11:29:02;0.65;;;0.60;;
13879;SDS011;7010;48.200;16.332;2023-03-14T11:31:46;0.73;;;0.73;;
13879;SDS011;7010;48.200;16.332;2023-03-14T11:34:16;0.50;;;0.50;;
13879;SDS011;7010;48.200;16.332;2023-03-14T11:36:50;0.47;;;0.40;;
13879;SDS011;7010;48.200;16.332;2023-03-14T11:39:20;0.60;;;0.60;;
13879;SDS011;7010;48.200;16.332;2023-03-14T11:41:50;0.20;;;0.20;;
13879;SDS011;7010;48.200;16.332;2023-03-14T11:44:20;0.47;;;0.47;;
13879;SDS011;7010;48.200;16.332;2023-03-14T11:46:56;0.50;;;0.50;;
13879;SDS011;7010;48.200;16.332;2023-03-14T11:49:31;0.65;;;0.65;;
13879;SDS011;7010;48.200;16.332;2023-03-14T11:52:05;1.17;;;1.08;;
13879;SDS011;7010;48.200;16.332;2023-03-14T11:54:40;0.70;;;0.70;;
13879;SDS011;7010;48.200;16.332;2023-03-14T11:57:14;0.70;;;0.70;;
13879;SDS011;7010;48.200;16.332;2023-03-14T11:59:45;0.90;;;0.88;;
13879;SDS011;7010;48.200;16.332;2023-03-14T12:02:24;1.77;;;0.82;;
13879;SDS011;7010;48.200;16.332;2023-03-14T12:05:16;0.80;;;0.80;;
13879;SDS011;7010;48.200;16.332;2023-03-14T12:08:13;1.83;;;0.77;;
13879;SDS011;7010;48.200;16.332;2023-03-14T12:10:53;0.80;;;0.80;;
13879;SDS011;7010;48.200;16.332;2023-03-14T12:13:23;0.70;;;0.70;;
13879;SDS011;7010;48.200;16.332;2023-03-14T12:15:56;1.33;;;0.95;;
13879;SDS011;7010;48.200;16.332;2023-03-14T12:18:29;1.10;;;0.60;;
13879;SDS011;7010;48.200;16.332;2023-03-14T12:20:59;0.50;;;0.50;;
13879;SDS011;7010;48.200;16.332;2023-03-14T12:23:34;0.65;;;0.65;;
13879;SDS011;7010;48.200;16.332;2023-03-14T12:26:13;1.05;;;0.90;;
13879;SDS011;7010;48.200;16.332;2023-03-14T12:28:44;1.85;;;1.10;;
13879;SDS011;7010;48.200;16.332;2023-03-14T12:40:12;4.47;;;0.80;;
13879;SDS011;7010;48.200;16.332;2023-03-14T12:42:51;0.63;;;0.63;;
13879;SDS011;7010;48.200;16.332;2023-03-14T12:45:26;1.10;;;0.90;;
13879;SDS011;7010;48.200;16.332;2023-03-14T12:48:00;0.80;;;0.80;;
13879;SDS011;7010;48.200;16.332;2023-03-14T12:50:36;0.60;;;0.60;;
13879;SDS011;7010;48.200;16.332;2023-03-14T12:56:17;0.90;;;0.80;;
13879;SDS011;7010;48.200;16.332;2023-03-14T12:59:14;0.60;;;0.60;;
13879;SDS011;7010;48.200;16.332;2023-03-14T13:02:10;0.70;;;0.70;;
13879;SDS011;7010;48.200;16.332;2023-03-14T13:04:48;0.63;;;0.63;;
13879;SDS011;7010;48.200;16.332;2023-03-14T13:10:26;0.90;;;0.77;;
13879;SDS011;7010;48.200;16.332;2023-03-14T13:13:08;0.70;;;0.70;;
13879;SDS011;7010;48.200;16.332;2023-03-14T13:15:44;0.60;;;0.60;;
13879;SDS011;7010;48.200;16.332;2023-03-14T13:18:17;0.40;;;0.40;;
13879;SDS011;7010;48.200;16.332;2023-03-14T13:20:58;0.73;;;0.73;;
13879;SDS011;7010;48.200;16.332;2023-03-14T13:23:32;0.63;;;0.63;;
13879;SDS011;7010;48.200;16.332;2023-03-14T13:26:02;0.40;;;0.40;;
13879;SDS011;7010;48.200;16.332;2023-03-14T13:28:33;0.40;;;0.40;;
13879;SDS011;7010;48.200;16.332;2023-03-14T13:31:03;0.40;;;0.40;;
13879;SDS011;7010;48.200;16.332;2023-03-14T13:33:32;0.38;;;0.38;;
13879;SDS011;7010;48.200;16.332;2023-03-14T13:36:02;0.60;;;0.60;;
13879;SDS011;7010;48.200;16.332;2023-03-14T13:38:34;1.63;;;0.90;;
13879;SDS011;7010;48.200;16.332;2023-03-14T13:41:04;0.45;;;0.45;;
13879;SDS011;7010;48.200;16.332;2023-03-14T13:43:38;0.50;;;0.50;;
13879;SDS011;7010;48.200;16.332;2023-03-14T13:46:12;3.03;;;0.75;;
13879;SDS011;7010;48.200;16.332;2023-03-14T13:48:43;0.50;;;0.50;;
13879;SDS011;7010;48.200;16.332;2023-03-14T13:51:15;0.50;;;0.50;;
13879;SDS011;7010;48.200;16.332;2023-03-14T13:53:47;3.15;;;0.90;;
13879;SDS011;7010;48.200;16.332;2023-03-14T13:56:17;0.22;;;0.22;;
13879;SDS011;7010;48.200;16.332;2023-03-14T13:58:46;0.50;;;0.50;;
13879;SDS011;7010;48.200;16.332;2023-03-14T14:01:16;0.65;;;0.65;;
13879;SDS011;7010;48.200;16.332;2023-03-14T14:03:48;1.83;;;1.08;;
13879;SDS011;7010;48.200;16.332;2023-03-14T14:06:29;1.23;;;1.17;;
13879;SDS011;7010;48.200;16.332;2023-03-14T14:09:01;0.73;;;0.73;;
13879;SDS011;7010;48.200;16.332;2023-03-14T14:11:42;1.25;;;1.15;;
13879;SDS011;7010;48.200;16.332;2023-03-14T14:14:29;2.60;;;2.42;;
13879;SDS011;7010;48.200;16.332;2023-03-14T14:17:03;2.55;;;1.80;;
13879;SDS011;7010;48.200;16.332;2023-03-14T14:19:35;10.32;;;4.82;;
13879;SDS011;7010;48.200;16.332;2023-03-14T14:22:06;3.00;;;2.70;;
13879;SDS011;7010;48.200;16.332;2023-03-14T14:24:38;2.30;;;1.85;;
13879;SDS011;7010;48.200;16.332;2023-03-14T14:27:08;1.88;;;1.77;;
13879;SDS011;7010;48.200;16.332;2023-03-14T14:29:41;1.30;;;1.20;;
13879;SDS011;7010;48.200;16.332;2023-03-14T14:32:11;1.58;;;1.48;;
13879;SDS011;7010;48.200;16.332;2023-03-14T14:34:42;2.60;;;2.05;;
13879;SDS011;7010;48.200;16.332;2023-03-14T14:37:18;1.13;;;1.13;;
13879;SDS011;7010;48.200;16.332;2023-03-14T14:39:49;3.20;;;2.80;;
13879;SDS011;7010;48.200;16.332;2023-03-14T14:42:20;2.30;;;2.10;;
13879;SDS011;7010;48.200;16.332;2023-03-14T14:44:51;2.58;;;2.38;;
13879;SDS011;7010;48.200;16.332;2023-03-14T14:47:21;2.45;;;1.92;;
13879;SDS011;7010;48.200;16.332;2023-03-14T14:49:51;1.25;;;1.17;;
13879;SDS011;7010;48.200;16.332;2023-03-14T14:52:21;2.28;;;1.25;;
13879;SDS011;7010;48.200;16.332;2023-03-14T14:55:01;1.70;;;1.42;;
13879;SDS011;7010;48.200;16.332;2023-03-14T14:57:31;1.90;;;1.80;;
13879;SDS011;7010;48.200;16.332;2023-03-14T15:00:05;2.00;;;1.80;;
13879;SDS011;7010;48.200;16.332;2023-03-14T15:02:39;1.25;;;1.15;;
13879;SDS011;7010;48.200;16.332;2023-03-14T15:05:13;1.70;;;1.40;;
13879;SDS011;7010;48.200;16.332;2023-03-14T15:07:43;2.55;;;1.50;;
13879;SDS011;7010;48.200;16.332;2023-03-14T15:10:14;1.80;;;1.70;;
13879;SDS011;7010;48.200;16.332;2023-03-14T15:12:44;1.67;;;1.58;;
13879;SDS011;7010;48.200;16.332;2023-03-14T15:15:14;1.10;;;1.10;;
13879;SDS011;7010;48.200;16.332;2023-03-14T15:17:43;2.78;;;2.50;;
13879;SDS011;7010;48.200;16.332;2023-03-14T15:20:12;7.03;;;1.45;;
13879;SDS011;7010;48.200;16.332;2023-03-14T15:22:42;1.63;;;1.17;;
13879;SDS011;7010;48.200;16.332;2023-03-14T15:25:10;2.28;;;1.42;;
13879;SDS011;7010;48.200;16.332;2023-03-14T15:28:00;6.18;;;1.65;;